Time,TemperatureF,DewpointF,PressureIn,WindDirection,WindDirectionDegrees,WindSpeedMPH,WindSpeedGustMPH,Humidity,HourlyPrecipIn,Conditions,Clouds,dailyrainin,SoftwareType,DateUTC
2013-08-03 00:01:00,65.9,62.2,29.84,SW,220,0.0,1.0,88,0.00,,,0.00,Wunderground v.1.15,2013-08-03 04:01:00,
2013-08-03 00:02:00,65.9,62.2,29.84,SW,219,0.0,1.0,88,0.00,,,0.00,Wunderground v.1.15,2013-08-03 04:02:00,
2013-08-03 00:04:00,65.8,62.1,29.84,SW,220,0.0,1.0,88,0.00,,,0.00,Wunderground v.1.15,2013-08-03 04:04:00,
2013-08-03 00:08:00,65.8,62.1,29.84,SW,220,0.0,1.0,88,0.00,,,0.00,Wunderground v.1.15,2013-08-03 04:08:00,
2013-08-03 00:11:00,65.8,62.1,29.84,SW,220,0.0,0.0,88,0.00,,,0.00,Wunderground v.1.15,2013-08-03 04:11:00,
2013-08-03 00:17:00,65.7,62.0,29.84,SW,220,0.0,0.0,88,0.00,,,0.00,Wunderground v.1.15,2013-08-03 04:17:00,
2013-08-03 00:22:00,65.6,61.9,29.84,SW,220,0.0,0.0,88,0.00,,,0.00,Wunderground v.1.15,2013-08-03 04:22:00,
2013-08-03 00:28:00,65.5,61.9,29.84,SW,220,0.0,0.0,88,0.00,,,0.00,Wunderground v.1.15,2013-08-03 04:28:00,
2013-08-03 00:33:00,65.3,61.7,29.85,SW,220,0.0,0.0,88,0.00,,,0.00,Wunderground v.1.15,2013-08-03 04:33:00,
2013-08-03 00:39:00,65.2,61.6,29.84,SW,220,0.0,0.0,88,0.00,,,0.00,Wunderground v.1.15,2013-08-03 04:39:00,
2013-08-03 00:46:00,65.0,61.4,29.84,SW,220,0.0,1.0,88,0.00,,,0.00,Wunderground v.1.15,2013-08-03 04:46:00,
2013-08-03 00:52:00,64.9,61.3,29.85,SW,219,0.0,0.0,88,0.00,,,0.00,Wunderground v.1.15,2013-08-03 04:52:00,
2013-08-03 00:58:00,64.7,61.1,29.84,SW,220,0.0,1.0,88,0.00,,,0.00,Wunderground v.1.15,2013-08-03 04:58:00,
2013-08-03 01:03:00,64.6,61.0,29.84,SW,220,0.0,0.0,88,0.00,,,0.00,Wunderground v.1.15,2013-08-03 05:03:00,
2013-08-03 01:09:00,64.5,60.9,29.84,SW,220,0.0,0.0,88,0.00,,,0.00,Wunderground v.1.15,2013-08-03 05:09:00,
2013-08-03 01:13:00,64.3,60.7,29.84,SW,220,0.0,0.0,88,0.00,,,0.00,Wunderground v.1.15,2013-08-03 05:13:00,
2013-08-03 01:19:00,64.2,60.6,29.83,WSW,240,0.0,1.0,88,0.00,,,0.00,Wunderground v.1.15,2013-08-03 05:19:00,
2013-08-03 01:26:00,64.0,60.4,29.83,NW,309,0.0,1.0,88,0.00,,,0.00,Wunderground v.1.15,2013-08-03 05:26:00,
2013-08-03 01:31:00,63.8,60.2,29.83,WNW,295,1.0,1.0,88,0.00,,,0.00,Wunderground v.1.15,2013-08-03 05:31:00,
2013-08-03 01:36:00,63.7,60.1,29.83,NNW,346,1.0,1.0,88,0.00,,,0.00,Wunderground v.1.15,2013-08-03 05:36:00,
2013-08-03 01:42:00,63.6,60.0,29.83,WNW,298,1.0,3.0,88,0.00,,,0.00,Wunderground v.1.15,2013-08-03 05:42:00,
2013-08-03 01:48:00,63.6,60.0,29.83,West,275,1.0,3.0,88,0.00,,,0.00,Wunderground v.1.15,2013-08-03 05:48:00,
2013-08-03 01:53:00,63.6,60.0,29.83,WNW,284,1.0,3.0,88,0.00,,,0.00,Wunderground v.1.15,2013-08-03 05:53:00,
2013-08-03 01:59:00,63.5,59.9,29.83,West,280,1.0,3.0,88,0.00,,,0.00,Wunderground v.1.15,2013-08-03 05:59:00,
2013-08-03 02:06:00,63.5,59.9,29.82,NW,310,1.0,2.0,88,0.00,,,0.00,Wunderground v.1.15,2013-08-03 06:06:00,
2013-08-03 02:12:00,63.4,59.8,29.82,NW,311,1.0,1.0,88,0.00,,,0.00,Wunderground v.1.15,2013-08-03 06:12:00,
2013-08-03 02:17:00,63.3,59.7,29.82,NW,311,1.0,1.0,88,0.00,,,0.00,Wunderground v.1.15,2013-08-03 06:17:00,
2013-08-03 02:23:00,63.2,59.6,29.82,NW,310,0.0,1.0,88,0.00,,,0.00,Wunderground v.1.15,2013-08-03 06:23:00,
2013-08-03 02:29:00,63.1,59.5,29.81,NW,311,0.0,1.0,88,0.00,,,0.00,Wunderground v.1.15,2013-08-03 06:29:00,
2013-08-03 02:36:00,63.0,59.7,29.81,North,5,0.0,1.0,89,0.00,,,0.00,Wunderground v.1.15,2013-08-03 06:36:00,
2013-08-03 02:42:00,62.8,59.2,29.80,North,360,1.0,1.0,88,0.00,,,0.00,Wunderground v.1.15,2013-08-03 06:42:00,
2013-08-03 02:48:00,62.7,59.1,29.80,NW,321,1.0,1.0,88,0.00,,,0.00,Wunderground v.1.15,2013-08-03 06:48:00,
2013-08-03 02:54:00,62.6,59.0,29.80,NW,321,1.0,1.0,88,0.00,,,0.00,Wunderground v.1.15,2013-08-03 06:54:00,
2013-08-03 03:01:00,62.5,59.2,29.80,NW,321,0.0,0.0,89,0.00,,,0.00,Wunderground v.1.15,2013-08-03 07:01:00,
2013-08-03 03:06:00,62.5,59.2,29.80,NW,321,0.0,0.0,89,0.00,,,0.00,Wunderground v.1.15,2013-08-03 07:06:00,
2013-08-03 03:12:00,62.5,59.2,29.80,NW,321,0.0,0.0,89,0.00,,,0.00,Wunderground v.1.15,2013-08-03 07:12:00,
2013-08-03 03:18:00,62.4,59.1,29.80,NW,321,0.0,0.0,89,0.00,,,0.00,Wunderground v.1.15,2013-08-03 07:18:00,
2013-08-03 03:23:00,62.3,59.0,29.80,NW,321,0.0,0.0,89,0.00,,,0.00,Wunderground v.1.15,2013-08-03 07:23:00,
2013-08-03 03:29:00,62.3,59.0,29.80,NW,321,0.0,1.0,89,0.00,,,0.00,Wunderground v.1.15,2013-08-03 07:29:00,
2013-08-03 03:36:00,62.1,58.8,29.80,NW,321,0.0,1.0,89,0.00,,,0.00,Wunderground v.1.15,2013-08-03 07:36:00,
2013-08-03 03:42:00,62.0,58.7,29.80,NW,321,0.0,0.0,89,0.00,,,0.00,Wunderground v.1.15,2013-08-03 07:42:00,
2013-08-03 03:48:00,62.0,58.7,29.80,NW,321,0.0,1.0,89,0.00,,,0.00,Wunderground v.1.15,2013-08-03 07:48:00,
2013-08-03 03:53:00,61.9,58.6,29.80,NW,321,0.0,0.0,89,0.00,,,0.00,Wunderground v.1.15,2013-08-03 07:53:00,
2013-08-03 03:59:00,61.9,58.6,29.80,NW,321,0.0,0.0,89,0.00,,,0.00,Wunderground v.1.15,2013-08-03 07:59:00,
2013-08-03 04:04:00,61.9,58.6,29.80,NW,321,0.0,1.0,89,0.00,,,0.00,Wunderground v.1.15,2013-08-03 08:04:00,
2013-08-03 04:11:00,61.9,58.6,29.80,NW,321,0.0,1.0,89,0.00,,,0.00,Wunderground v.1.15,2013-08-03 08:11:00,
2013-08-03 04:17:00,61.9,58.6,29.80,NW,321,0.0,1.0,89,0.00,,,0.00,Wunderground v.1.15,2013-08-03 08:17:00,
2013-08-03 04:23:00,61.8,58.5,29.79,NW,321,0.0,0.0,89,0.00,,,0.01,Wunderground v.1.15,2013-08-03 08:23:00,
2013-08-03 04:29:00,61.8,58.5,29.79,NW,321,0.0,0.0,89,0.00,,,0.01,Wunderground v.1.15,2013-08-03 08:29:00,
2013-08-03 04:34:00,61.8,58.5,29.80,NW,321,0.0,0.0,89,0.00,,,0.01,Wunderground v.1.15,2013-08-03 08:34:00,
2013-08-03 04:39:00,61.8,58.5,29.80,NW,321,0.0,0.0,89,0.00,,,0.01,Wunderground v.1.15,2013-08-03 08:39:00,
2013-08-03 04:46:00,61.7,58.4,29.80,NW,321,0.0,0.0,89,0.00,,,0.01,Wunderground v.1.15,2013-08-03 08:46:00,
2013-08-03 04:52:00,61.7,58.4,29.80,NW,321,0.0,0.0,89,0.00,,,0.01,Wunderground v.1.15,2013-08-03 08:52:00,
2013-08-03 04:58:00,61.6,58.3,29.80,NW,321,0.0,0.0,89,0.00,,,0.01,Wunderground v.1.15,2013-08-03 08:58:00,
2013-08-03 05:04:00,61.6,58.3,29.80,NW,321,0.0,0.0,89,0.00,,,0.01,Wunderground v.1.15,2013-08-03 09:04:00,
2013-08-03 05:09:00,61.5,58.2,29.80,NW,321,0.0,0.0,89,0.00,,,0.01,Wunderground v.1.15,2013-08-03 09:09:00,
2013-08-03 05:14:00,61.4,58.1,29.81,NW,321,0.0,0.0,89,0.00,,,0.01,Wunderground v.1.15,2013-08-03 09:14:00,
2013-08-03 05:21:00,61.5,58.2,29.80,WNW,285,0.0,0.0,89,0.00,,,0.01,Wunderground v.1.15,2013-08-03 09:21:00,
2013-08-03 05:27:00,61.5,58.2,29.80,West,273,1.0,2.0,89,0.00,,,0.01,Wunderground v.1.15,2013-08-03 09:27:00,
2013-08-03 05:33:00,61.6,58.3,29.80,NNE,23,1.0,1.0,89,0.00,,,0.01,Wunderground v.1.15,2013-08-03 09:33:00,
2013-08-03 05:39:00,61.8,58.5,29.80,North,11,1.0,1.0,89,0.00,,,0.01,Wunderground v.1.15,2013-08-03 09:39:00,
2013-08-03 05:44:00,62.0,58.7,29.80,North,5,0.0,1.0,89,0.00,,,0.01,Wunderground v.1.15,2013-08-03 09:44:00,
2013-08-03 05:51:00,62.0,58.7,29.81,West,272,0.0,4.0,89,0.00,,,0.01,Wunderground v.1.15,2013-08-03 09:51:00,
2013-08-03 05:57:00,62.1,58.8,29.81,West,278,1.0,4.0,89,0.00,,,0.01,Wunderground v.1.15,2013-08-03 09:57:00,
2013-08-03 06:03:00,62.4,59.1,29.81,NW,308,2.0,2.0,89,0.00,,,0.01,Wunderground v.1.15,2013-08-03 10:03:00,
2013-08-03 06:09:00,62.7,59.4,29.81,West,271,2.0,2.0,89,0.00,,,0.01,Wunderground v.1.15,2013-08-03 10:09:00,
2013-08-03 06:16:00,62.9,59.6,29.80,WNW,285,2.0,5.0,89,0.00,,,0.01,Wunderground v.1.15,2013-08-03 10:16:00,
2013-08-03 06:21:00,63.1,59.8,29.81,WNW,292,2.0,2.0,89,0.00,,,0.01,Wunderground v.1.15,2013-08-03 10:21:00,
2013-08-03 06:27:00,63.2,59.9,29.81,NW,316,2.0,4.0,89,0.00,,,0.01,Wunderground v.1.15,2013-08-03 10:27:00,
2013-08-03 06:32:00,63.4,60.1,29.81,NNW,329,2.0,2.0,89,0.00,,,0.01,Wunderground v.1.15,2013-08-03 10:32:00,
2013-08-03 06:38:00,63.5,60.2,29.81,WNW,296,2.0,4.0,89,0.00,,,0.01,Wunderground v.1.15,2013-08-03 10:38:00,
2013-08-03 06:44:00,63.6,60.3,29.80,West,264,2.0,2.0,89,0.00,,,0.01,Wunderground v.1.15,2013-08-03 10:44:00,
2013-08-03 06:49:00,63.6,60.3,29.80,WNW,284,2.0,4.0,89,0.00,,,0.01,Wunderground v.1.15,2013-08-03 10:49:00,
2013-08-03 06:54:00,63.8,60.5,29.80,SW,230,2.0,4.0,89,0.00,,,0.01,Wunderground v.1.15,2013-08-03 10:54:00,
2013-08-03 07:01:00,63.9,60.6,29.81,SSW,193,2.0,2.0,89,0.00,,,0.01,Wunderground v.1.15,2013-08-03 11:01:00,
2013-08-03 07:07:00,64.1,60.8,29.80,West,268,2.0,2.0,89,0.00,,,0.01,Wunderground v.1.15,2013-08-03 11:07:00,
2013-08-03 07:13:00,64.1,60.8,29.80,SW,223,2.0,3.0,89,0.00,,,0.01,Wunderground v.1.15,2013-08-03 11:13:00,
2013-08-03 07:19:00,64.3,61.0,29.80,SSW,192,3.0,4.0,89,0.00,,,0.01,Wunderground v.1.15,2013-08-03 11:19:00,
2013-08-03 07:26:00,64.4,61.1,29.80,SW,229,2.0,3.0,89,0.00,,,0.01,Wunderground v.1.15,2013-08-03 11:26:00,
2013-08-03 07:32:00,64.7,61.4,29.80,WSW,241,2.0,5.0,89,0.00,,,0.01,Wunderground v.1.15,2013-08-03 11:32:00,
2013-08-03 07:37:00,64.9,61.6,29.81,WSW,242,3.0,5.0,89,0.00,,,0.01,Wunderground v.1.15,2013-08-03 11:37:00,
2013-08-03 07:41:00,65.2,61.9,29.81,WNW,288,3.0,3.0,89,0.00,,,0.01,Wunderground v.1.15,2013-08-03 11:41:00,
2013-08-03 07:48:00,65.3,62.0,29.80,North,355,2.0,3.0,89,0.00,,,0.01,Wunderground v.1.15,2013-08-03 11:48:00,
2013-08-03 07:54:00,65.6,62.3,29.81,NW,313,1.0,2.0,89,0.00,,,0.01,Wunderground v.1.15,2013-08-03 11:54:00,
2013-08-03 08:01:00,65.8,62.1,29.81,WNW,300,1.0,3.0,88,0.00,,,0.01,Wunderground v.1.15,2013-08-03 12:01:00,
2013-08-03 08:06:00,65.9,62.6,29.81,NW,325,2.0,3.0,89,0.00,,,0.01,Wunderground v.1.15,2013-08-03 12:06:00,
2013-08-03 08:12:00,66.0,62.3,29.81,WNW,300,2.0,4.0,88,0.00,,,0.01,Wunderground v.1.15,2013-08-03 12:12:00,
2013-08-03 08:18:00,66.2,62.5,29.81,NNW,341,2.0,7.0,88,0.00,,,0.01,Wunderground v.1.15,2013-08-03 12:18:00,
2013-08-03 08:23:00,66.4,62.7,29.81,NNW,337,2.0,2.0,88,0.00,,,0.01,Wunderground v.1.15,2013-08-03 12:23:00,
2013-08-03 08:29:00,66.6,62.9,29.81,NNW,338,1.0,3.0,88,0.00,,,0.01,Wunderground v.1.15,2013-08-03 12:29:00,
2013-08-03 08:36:00,66.7,62.7,29.81,WNW,291,1.0,3.0,87,0.00,,,0.01,Wunderground v.1.15,2013-08-03 12:36:00,
2013-08-03 08:42:00,66.7,62.4,29.81,WNW,284,1.0,4.0,86,0.00,,,0.01,Wunderground v.1.15,2013-08-03 12:42:00,
2013-08-03 08:48:00,66.9,62.6,29.81,North,360,2.0,5.0,86,0.00,,,0.01,Wunderground v.1.15,2013-08-03 12:48:00,
2013-08-03 08:54:00,67.1,62.8,29.81,NW,309,2.0,4.0,86,0.00,,,0.01,Wunderground v.1.15,2013-08-03 12:54:00,
2013-08-03 08:59:00,67.2,62.9,29.81,West,269,2.0,4.0,86,0.00,,,0.01,Wunderground v.1.15,2013-08-03 12:59:00,
2013-08-03 09:06:00,67.4,63.1,29.81,NW,306,2.0,3.0,86,0.00,,,0.01,Wunderground v.1.15,2013-08-03 13:06:00,
2013-08-03 09:12:00,67.7,63.0,29.81,West,263,2.0,4.0,85,0.00,,,0.01,Wunderground v.1.15,2013-08-03 13:12:00,
2013-08-03 09:17:00,68.0,63.3,29.81,NW,322,3.0,5.0,85,0.00,,,0.01,Wunderground v.1.15,2013-08-03 13:17:00,
2013-08-03 09:23:00,68.4,63.4,29.81,WNW,285,3.0,5.0,84,0.00,,,0.01,Wunderground v.1.15,2013-08-03 13:23:00,
2013-08-03 09:29:00,68.6,62.9,29.81,WSW,255,3.0,7.0,82,0.00,,,0.01,Wunderground v.1.15,2013-08-03 13:29:00,
2013-08-03 09:36:00,68.8,63.8,29.81,NNW,335,3.0,4.0,84,0.00,,,0.01,Wunderground v.1.15,2013-08-03 13:36:00,
2013-08-03 09:42:00,68.9,63.2,29.81,North,355,2.0,2.0,82,0.00,,,0.01,Wunderground v.1.15,2013-08-03 13:42:00,
2013-08-03 09:46:00,68.9,62.8,29.81,WNW,292,2.0,3.0,81,0.00,,,0.01,Wunderground v.1.15,2013-08-03 13:46:00,
2013-08-03 09:52:00,69.0,63.6,29.81,NNW,331,2.0,2.0,83,0.00,,,0.01,Wunderground v.1.15,2013-08-03 13:52:00,
2013-08-03 09:58:00,68.9,63.5,29.82,West,265,2.0,3.0,83,0.00,,,0.01,Wunderground v.1.15,2013-08-03 13:58:00,
2013-08-03 10:03:00,68.8,63.1,29.82,NNE,19,3.0,4.0,82,0.00,,,0.01,Wunderground v.1.15,2013-08-03 14:03:00,
2013-08-03 10:08:00,68.8,62.7,29.82,WNW,286,3.0,4.0,81,0.00,,,0.01,Wunderground v.1.15,2013-08-03 14:08:00,
2013-08-03 10:14:00,68.8,62.7,29.82,NW,320,2.0,5.0,81,0.00,,,0.01,Wunderground v.1.15,2013-08-03 14:14:00,
2013-08-03 10:21:00,68.7,62.6,29.81,WNW,294,2.0,3.0,81,0.00,,,0.01,Wunderground v.1.15,2013-08-03 14:21:00,
2013-08-03 10:27:00,68.6,62.2,29.81,NNE,18,2.0,3.0,80,0.00,,,0.01,Wunderground v.1.15,2013-08-03 14:27:00,
2013-08-03 10:33:00,68.6,62.5,29.81,WNW,296,2.0,3.0,81,0.00,,,0.01,Wunderground v.1.15,2013-08-03 14:33:00,
2013-08-03 10:39:00,68.7,63.3,29.81,WNW,303,1.0,3.0,83,0.00,,,0.01,Wunderground v.1.15,2013-08-03 14:39:00,
2013-08-03 10:46:00,68.8,62.7,29.81,WSW,245,1.0,3.0,81,0.00,,,0.01,Wunderground v.1.15,2013-08-03 14:46:00,
2013-08-03 10:52:00,68.8,62.7,29.81,WNW,298,2.0,2.0,81,0.00,,,0.01,Wunderground v.1.15,2013-08-03 14:52:00,
2013-08-03 10:57:00,68.9,63.2,29.81,West,272,2.0,4.0,82,0.00,,,0.01,Wunderground v.1.15,2013-08-03 14:57:00,
2013-08-03 11:03:00,68.8,62.7,29.81,NW,310,2.0,2.0,81,0.00,,,0.01,Wunderground v.1.15,2013-08-03 15:03:00,
2013-08-03 11:09:00,68.8,62.4,29.81,WNW,287,2.0,2.0,80,0.00,,,0.01,Wunderground v.1.15,2013-08-03 15:09:00,
2013-08-03 11:14:00,68.8,62.4,29.82,West,271,2.0,3.0,80,0.00,,,0.01,Wunderground v.1.15,2013-08-03 15:14:00,
2013-08-03 11:19:00,68.9,62.5,29.82,SSW,207,2.0,3.0,80,0.00,,,0.01,Wunderground v.1.15,2013-08-03 15:19:00,
2013-08-03 11:26:00,69.1,63.4,29.81,East,96,2.0,2.0,82,0.00,,,0.01,Wunderground v.1.15,2013-08-03 15:26:00,
2013-08-03 11:31:00,69.3,63.2,29.81,SW,236,2.0,4.0,81,0.00,,,0.01,Wunderground v.1.15,2013-08-03 15:31:00,
2013-08-03 11:37:00,69.4,63.0,29.81,West,281,2.0,5.0,80,0.00,,,0.01,Wunderground v.1.15,2013-08-03 15:37:00,
2013-08-03 11:43:00,69.7,64.0,29.81,West,275,2.0,4.0,82,0.00,,,0.01,Wunderground v.1.15,2013-08-03 15:43:00,
2013-08-03 11:49:00,70.0,63.9,29.81,NNW,342,2.0,4.0,81,0.00,,,0.01,Wunderground v.1.15,2013-08-03 15:49:00,
2013-08-03 11:56:00,70.5,64.4,29.81,NW,323,2.0,4.0,81,0.00,,,0.01,Wunderground v.1.15,2013-08-03 15:56:00,
2013-08-03 12:02:00,70.6,63.4,29.81,NNE,18,2.0,5.0,78,0.00,,,0.01,Wunderground v.1.15,2013-08-03 16:02:00,
2013-08-03 12:08:00,70.9,64.1,29.81,SSW,198,3.0,6.0,79,0.00,,,0.01,Wunderground v.1.15,2013-08-03 16:08:00,
2013-08-03 12:14:00,71.5,64.6,29.81,WSW,237,3.0,3.0,79,0.00,,,0.01,Wunderground v.1.15,2013-08-03 16:14:00,
2013-08-03 12:21:00,72.4,65.5,29.81,SSW,200,2.0,2.0,79,0.00,,,0.01,Wunderground v.1.15,2013-08-03 16:21:00,
2013-08-03 12:27:00,72.2,63.4,29.81,NNW,327,2.0,4.0,74,0.00,,,0.01,Wunderground v.1.15,2013-08-03 16:27:00,
2013-08-03 12:33:00,72.1,63.7,29.81,WSW,243,3.0,5.0,75,0.00,,,0.01,Wunderground v.1.15,2013-08-03 16:33:00,
2013-08-03 12:39:00,72.7,65.4,29.81,SSW,206,3.0,5.0,78,0.00,,,0.01,Wunderground v.1.15,2013-08-03 16:39:00,
2013-08-03 12:44:00,73.5,64.3,29.81,SW,223,2.0,3.0,73,0.00,,,0.01,Wunderground v.1.15,2013-08-03 16:44:00,
2013-08-03 12:51:00,74.5,64.1,29.81,NNW,348,4.0,4.0,70,0.00,,,0.01,Wunderground v.1.15,2013-08-03 16:51:00,
2013-08-03 12:57:00,74.5,64.5,29.81,WNW,288,3.0,5.0,71,0.00,,,0.01,Wunderground v.1.15,2013-08-03 16:57:00,
2013-08-03 13:03:00,75.0,65.0,29.81,WNW,302,3.0,8.0,71,0.00,,,0.01,Wunderground v.1.15,2013-08-03 17:03:00,
2013-08-03 13:08:00,74.5,64.9,29.80,East,96,3.0,8.0,72,0.00,,,0.01,Wunderground v.1.15,2013-08-03 17:08:00,
2013-08-03 13:13:00,74.2,65.8,29.80,SW,214,3.0,3.0,75,0.00,,,0.01,Wunderground v.1.15,2013-08-03 17:13:00,
2013-08-03 13:19:00,74.2,64.6,29.80,WNW,301,3.0,7.0,72,0.00,,,0.01,Wunderground v.1.15,2013-08-03 17:19:00,
2013-08-03 13:26:00,74.1,64.1,29.80,South,185,3.0,5.0,71,0.00,,,0.01,Wunderground v.1.15,2013-08-03 17:26:00,
2013-08-03 13:32:00,74.2,65.8,29.80,WNW,298,2.0,2.0,75,0.00,,,0.01,Wunderground v.1.15,2013-08-03 17:32:00,
2013-08-03 13:38:00,74.4,65.6,29.80,WNW,297,2.0,3.0,74,0.00,,,0.01,Wunderground v.1.15,2013-08-03 17:38:00,
2013-08-03 13:45:00,74.8,65.6,29.80,WNW,300,3.0,3.0,73,0.00,,,0.01,Wunderground v.1.15,2013-08-03 17:45:00,
2013-08-03 13:54:00,75.0,64.5,29.80,WNW,297,3.0,5.0,70,0.00,,,0.01,Wunderground v.1.15,2013-08-03 17:54:00,
2013-08-03 14:01:00,74.4,64.0,29.80,ENE,65,3.0,3.0,70,0.00,,,0.01,Wunderground v.1.15,2013-08-03 18:01:00,
2013-08-03 14:06:00,74.2,65.4,29.80,NW,320,2.0,3.0,74,0.00,,,0.01,Wunderground v.1.15,2013-08-03 18:06:00,
2013-08-03 14:12:00,74.4,65.6,29.80,West,263,2.0,9.0,74,0.00,,,0.01,Wunderground v.1.15,2013-08-03 18:12:00,
2013-08-03 14:17:00,74.4,64.4,29.80,WSW,238,3.0,9.0,71,0.00,,,0.01,Wunderground v.1.15,2013-08-03 18:17:00,
2013-08-03 14:22:00,74.3,63.9,29.80,SSW,213,4.0,6.0,70,0.00,,,0.01,Wunderground v.1.15,2013-08-03 18:22:00,
2013-08-03 14:27:00,74.7,65.9,29.80,SE,136,3.0,6.0,74,0.00,,,0.01,Wunderground v.1.15,2013-08-03 18:27:00,
2013-08-03 14:32:00,75.5,65.8,29.80,West,261,3.0,3.0,72,0.00,,,0.01,Wunderground v.1.15,2013-08-03 18:32:00,
2013-08-03 14:37:00,76.0,64.2,29.80,NW,313,3.0,5.0,67,0.00,,,0.01,Wunderground v.1.15,2013-08-03 18:37:00,
2013-08-03 14:43:00,76.2,65.7,29.80,South,173,4.0,4.0,70,0.00,,,0.01,Wunderground v.1.15,2013-08-03 18:43:00,
2013-08-03 14:49:00,76.7,64.5,29.80,South,176,3.0,8.0,66,0.00,,,0.01,Wunderground v.1.15,2013-08-03 18:49:00,
2013-08-03 14:56:00,76.4,64.6,29.79,ESE,113,3.0,4.0,67,0.00,,,0.01,Wunderground v.1.15,2013-08-03 18:56:00,
2013-08-03 15:01:00,76.1,64.3,29.79,NNW,345,3.0,4.0,67,0.00,,,0.01,Wunderground v.1.15,2013-08-03 19:01:00,
2013-08-03 15:06:00,75.6,63.0,29.79,SW,214,4.0,5.0,65,0.00,,,0.01,Wunderground v.1.15,2013-08-03 19:06:00,
2013-08-03 15:12:00,75.8,65.7,29.79,WNW,300,3.0,5.0,71,0.00,,,0.01,Wunderground v.1.15,2013-08-03 19:12:00,
2013-08-03 15:18:00,76.4,65.5,29.78,WNW,286,2.0,5.0,69,0.00,,,0.01,Wunderground v.1.15,2013-08-03 19:18:00,
2013-08-03 15:23:00,76.8,66.3,29.78,WNW,303,2.0,4.0,70,0.00,,,0.01,Wunderground v.1.15,2013-08-03 19:23:00,
2013-08-03 15:29:00,76.5,63.0,29.78,WNW,284,3.0,6.0,63,0.00,,,0.01,Wunderground v.1.15,2013-08-03 19:29:00,
2013-08-03 15:36:00,76.6,64.4,29.78,NE,36,3.0,5.0,66,0.00,,,0.01,Wunderground v.1.15,2013-08-03 19:36:00,
2013-08-03 15:42:00,76.6,63.1,29.78,South,179,4.0,6.0,63,0.00,,,0.01,Wunderground v.1.15,2013-08-03 19:42:00,
2013-08-03 15:48:00,76.5,63.9,29.77,WNW,290,3.0,6.0,65,0.00,,,0.01,Wunderground v.1.15,2013-08-03 19:48:00,
2013-08-03 15:53:00,76.4,63.3,29.77,WNW,296,2.0,3.0,64,0.00,,,0.01,Wunderground v.1.15,2013-08-03 19:53:00,
2013-08-03 15:58:00,76.4,62.9,29.77,NW,318,3.0,5.0,63,0.00,,,0.01,Wunderground v.1.15,2013-08-03 19:58:00,
2013-08-03 16:04:00,76.4,64.2,29.77,NW,312,4.0,4.0,66,0.00,,,0.01,Wunderground v.1.15,2013-08-03 20:04:00,
2013-08-03 16:09:00,76.5,63.4,29.77,West,269,3.0,4.0,64,0.00,,,0.01,Wunderground v.1.15,2013-08-03 20:09:00,
2013-08-03 16:16:00,76.9,63.8,29.77,SW,232,2.0,6.0,64,0.00,,,0.01,Wunderground v.1.15,2013-08-03 20:16:00,
2013-08-03 16:21:00,77.3,64.6,29.77,WNW,283,3.0,3.0,65,0.00,,,0.01,Wunderground v.1.15,2013-08-03 20:21:00,
2013-08-03 16:27:00,77.6,63.5,29.77,SE,134,3.0,4.0,62,0.00,,,0.01,Wunderground v.1.15,2013-08-03 20:27:00,
2013-08-03 16:33:00,77.9,63.8,29.77,West,265,2.0,4.0,62,0.00,,,0.01,Wunderground v.1.15,2013-08-03 20:33:00,
2013-08-03 16:39:00,78.1,63.6,29.77,WNW,285,3.0,7.0,61,0.00,,,0.01,Wunderground v.1.15,2013-08-03 20:39:00,
2013-08-03 16:46:00,77.8,64.2,29.77,SE,126,4.0,5.0,63,0.00,,,0.01,Wunderground v.1.15,2013-08-03 20:46:00,
2013-08-03 16:52:00,77.8,63.3,29.77,SSW,198,4.0,4.0,61,0.00,,,0.01,Wunderground v.1.15,2013-08-03 20:52:00,
2013-08-03 16:58:00,77.6,63.1,29.77,South,175,3.0,4.0,61,0.00,,,0.01,Wunderground v.1.15,2013-08-03 20:58:00,
2013-08-03 17:04:00,77.2,63.6,29.77,NW,311,3.0,3.0,63,0.00,,,0.01,Wunderground v.1.15,2013-08-03 21:04:00,
2013-08-03 17:11:00,77.0,65.2,29.77,SW,216,2.0,2.0,67,0.00,,,0.01,Wunderground v.1.15,2013-08-03 21:11:00,
2013-08-03 17:16:00,77.1,65.7,29.76,North,355,2.0,3.0,68,0.00,,,0.01,Wunderground v.1.15,2013-08-03 21:16:00,
2013-08-03 17:19:00,77.3,65.5,29.76,NW,308,2.0,3.0,67,0.00,,,0.01,Wunderground v.1.15,2013-08-03 21:19:00,
2013-08-03 17:26:00,77.4,65.1,29.77,NW,307,3.0,5.0,66,0.00,,,0.01,Wunderground v.1.15,2013-08-03 21:26:00,
2013-08-03 17:31:00,77.0,63.4,29.77,WSW,240,3.0,6.0,63,0.00,,,0.01,Wunderground v.1.15,2013-08-03 21:31:00,
2013-08-03 17:37:00,76.4,63.8,29.77,NW,313,4.0,6.0,65,0.00,,,0.01,Wunderground v.1.15,2013-08-03 21:37:00,
2013-08-03 17:43:00,75.8,63.6,29.77,SSE,163,3.0,3.0,66,0.00,,,0.01,Wunderground v.1.15,2013-08-03 21:43:00,
2013-08-03 17:49:00,75.7,64.4,29.77,WNW,290,2.0,3.0,68,0.00,,,0.01,Wunderground v.1.15,2013-08-03 21:49:00,
2013-08-03 17:56:00,75.6,63.9,29.77,WNW,298,2.0,5.0,67,0.00,,,0.01,Wunderground v.1.15,2013-08-03 21:56:00,
2013-08-03 18:02:00,75.5,64.6,29.77,SW,225,2.0,2.0,69,0.00,,,0.01,Wunderground v.1.15,2013-08-03 22:02:00,
2013-08-03 18:07:00,75.4,65.3,29.77,NNE,28,2.0,4.0,71,0.00,,,0.01,Wunderground v.1.15,2013-08-03 22:07:00,
2013-08-03 18:13:00,75.2,64.7,29.77,WNW,286,2.0,2.0,70,0.00,,,0.01,Wunderground v.1.15,2013-08-03 22:13:00,
2013-08-03 18:19:00,74.9,64.5,29.77,WSW,251,2.0,3.0,70,0.00,,,0.01,Wunderground v.1.15,2013-08-03 22:19:00,
2013-08-03 18:26:00,74.7,64.3,29.77,WSW,252,2.0,4.0,70,0.00,,,0.01,Wunderground v.1.15,2013-08-03 22:26:00,
2013-08-03 18:31:00,74.6,65.0,29.77,South,179,2.0,2.0,72,0.00,,,0.01,Wunderground v.1.15,2013-08-03 22:31:00,
2013-08-03 18:37:00,74.5,65.3,29.77,SW,219,1.0,3.0,73,0.00,,,0.01,Wunderground v.1.15,2013-08-03 22:37:00,
2013-08-03 18:43:00,74.4,65.6,29.77,SSW,196,1.0,2.0,74,0.00,,,0.01,Wunderground v.1.15,2013-08-03 22:43:00,
2013-08-03 18:49:00,74.2,65.0,29.76,SW,229,1.0,2.0,73,0.00,,,0.01,Wunderground v.1.15,2013-08-03 22:49:00,
2013-08-03 18:56:00,74.0,66.0,29.78,WNW,303,2.0,3.0,76,0.00,,,0.01,Wunderground v.1.15,2013-08-03 22:56:00,
2013-08-03 19:02:00,73.8,65.8,29.78,WSW,256,2.0,2.0,76,0.00,,,0.01,Wunderground v.1.15,2013-08-03 23:02:00,
2013-08-03 19:07:00,73.8,65.8,29.78,SW,222,2.0,2.0,76,0.00,,,0.01,Wunderground v.1.15,2013-08-03 23:07:00,
2013-08-03 19:13:00,73.7,65.7,29.77,SSW,200,2.0,2.0,76,0.00,,,0.01,Wunderground v.1.15,2013-08-03 23:13:00,
2013-08-03 19:19:00,73.6,65.9,29.77,NW,313,2.0,2.0,77,0.00,,,0.01,Wunderground v.1.15,2013-08-03 23:19:00,
2013-08-03 19:26:00,73.4,65.7,29.78,West,277,2.0,6.0,77,0.00,,,0.01,Wunderground v.1.15,2013-08-03 23:26:00,
2013-08-03 19:32:00,73.3,65.7,29.78,WNW,302,2.0,5.0,77,0.00,,,0.01,Wunderground v.1.15,2013-08-03 23:32:00,
2013-08-03 19:38:00,73.0,65.7,29.77,NW,306,2.0,5.0,78,0.00,,,0.01,Wunderground v.1.15,2013-08-03 23:38:00,
2013-08-03 19:44:00,72.7,65.8,29.78,WNW,294,2.0,3.0,79,0.00,,,0.01,Wunderground v.1.15,2013-08-03 23:44:00,
2013-08-03 19:49:00,72.4,65.5,29.78,West,268,2.0,3.0,79,0.00,,,0.01,Wunderground v.1.15,2013-08-03 23:49:00,
2013-08-03 19:56:00,72.1,65.6,29.78,NW,315,1.0,2.0,80,0.00,,,0.01,Wunderground v.1.15,2013-08-03 23:56:00,
2013-08-03 20:02:00,71.9,65.8,29.78,WNW,298,1.0,4.0,81,0.00,,,0.01,Wunderground v.1.15,2013-08-04 00:02:00,
2013-08-03 20:08:00,71.6,65.1,29.78,SW,221,2.0,4.0,80,0.00,,,0.01,Wunderground v.1.15,2013-08-04 00:08:00,
2013-08-03 20:14:00,71.3,64.8,29.79,West,269,2.0,6.0,80,0.00,,,0.01,Wunderground v.1.15,2013-08-04 00:14:00,
2013-08-03 20:19:00,71.1,64.6,29.79,South,186,2.0,6.0,80,0.00,,,0.01,Wunderground v.1.15,2013-08-04 00:19:00,
2013-08-03 20:26:00,70.7,64.6,29.79,WNW,287,1.0,2.0,81,0.00,,,0.01,Wunderground v.1.15,2013-08-04 00:26:00,
2013-08-03 20:32:00,70.4,64.6,29.79,SSW,210,2.0,2.0,82,0.00,,,0.01,Wunderground v.1.15,2013-08-04 00:32:00,
2013-08-03 20:37:00,70.1,64.3,29.80,WSW,238,2.0,3.0,82,0.00,,,0.01,Wunderground v.1.15,2013-08-04 00:37:00,
2013-08-03 20:43:00,69.8,64.1,29.80,NW,304,2.0,2.0,82,0.00,,,0.01,Wunderground v.1.15,2013-08-04 00:43:00,
2013-08-03 20:49:00,69.5,63.8,29.80,West,261,1.0,5.0,82,0.00,,,0.01,Wunderground v.1.15,2013-08-04 00:49:00,
2013-08-03 20:54:00,69.2,63.1,29.81,West,277,2.0,7.0,81,0.00,,,0.01,Wunderground v.1.15,2013-08-04 00:54:00,
2013-08-03 21:01:00,68.9,62.8,29.81,WSW,254,2.0,4.0,81,0.00,,,0.01,Wunderground v.1.15,2013-08-04 01:01:00,
2013-08-03 21:06:00,68.8,62.7,29.81,West,269,2.0,4.0,81,0.00,,,0.01,Wunderground v.1.15,2013-08-04 01:06:00,
2013-08-03 21:12:00,68.6,62.5,29.81,SW,232,1.0,3.0,81,0.00,,,0.01,Wunderground v.1.15,2013-08-04 01:12:00,
2013-08-03 21:18:00,68.4,62.0,29.81,NW,321,1.0,3.0,80,0.00,,,0.01,Wunderground v.1.15,2013-08-04 01:18:00,
2013-08-03 21:24:00,68.2,62.1,29.81,NW,304,1.0,1.0,81,0.00,,,0.01,Wunderground v.1.15,2013-08-04 01:24:00,
2013-08-03 21:31:00,67.9,62.2,29.82,WNW,284,1.0,1.0,82,0.00,,,0.01,Wunderground v.1.15,2013-08-04 01:31:00,
2013-08-03 21:37:00,67.4,61.7,29.82,NW,306,2.0,4.0,82,0.00,,,0.01,Wunderground v.1.15,2013-08-04 01:37:00,
2013-08-03 21:42:00,67.0,61.7,29.82,NNW,330,2.0,2.0,83,0.00,,,0.01,Wunderground v.1.15,2013-08-04 01:42:00,
2013-08-03 21:48:00,66.7,61.7,29.82,SW,228,1.0,2.0,84,0.00,,,0.01,Wunderground v.1.15,2013-08-04 01:48:00,
2013-08-03 21:53:00,66.4,61.8,29.82,NW,323,1.0,2.0,85,0.00,,,0.01,Wunderground v.1.15,2013-08-04 01:53:00,
2013-08-03 21:59:00,66.1,61.5,29.82,NW,320,2.0,3.0,85,0.00,,,0.01,Wunderground v.1.15,2013-08-04 01:59:00,
2013-08-03 22:06:00,65.9,61.6,29.82,WNW,294,1.0,2.0,86,0.00,,,0.01,Wunderground v.1.15,2013-08-04 02:06:00,
2013-08-03 22:12:00,65.7,61.4,29.82,West,281,1.0,1.0,86,0.00,,,0.01,Wunderground v.1.15,2013-08-04 02:12:00,
2013-08-03 22:18:00,65.4,61.1,29.82,WNW,302,1.0,1.0,86,0.00,,,0.01,Wunderground v.1.15,2013-08-04 02:18:00,
2013-08-03 22:24:00,65.1,61.1,29.82,NW,315,1.0,1.0,87,0.00,,,0.01,Wunderground v.1.15,2013-08-04 02:24:00,
2013-08-03 22:32:00,64.8,60.8,29.82,NW,318,1.0,3.0,87,0.00,,,0.01,Wunderground v.1.15,2013-08-04 02:32:00,
2013-08-03 22:38:00,64.5,60.9,29.82,NW,316,1.0,3.0,88,0.00,,,0.01,Wunderground v.1.15,2013-08-04 02:38:00,
2013-08-03 22:43:00,64.4,60.8,29.82,WNW,290,1.0,2.0,88,0.00,,,0.01,Wunderground v.1.15,2013-08-04 02:43:00,
2013-08-03 22:49:00,64.3,60.7,29.83,North,350,2.0,4.0,88,0.00,,,0.01,Wunderground v.1.15,2013-08-04 02:49:00,
2013-08-03 22:56:00,64.1,60.5,29.82,NNW,334,1.0,2.0,88,0.00,,,0.01,Wunderground v.1.15,2013-08-04 02:56:00,
2013-08-03 23:02:00,64.0,60.4,29.82,NNW,328,1.0,1.0,88,0.00,,,0.01,Wunderground v.1.15,2013-08-04 03:02:00,
2013-08-03 23:07:00,63.8,60.2,29.82,NNW,345,1.0,1.0,88,0.00,,,0.01,Wunderground v.1.15,2013-08-04 03:07:00,
2013-08-03 23:13:00,63.6,60.0,29.82,NW,309,1.0,1.0,88,0.00,,,0.01,Wunderground v.1.15,2013-08-04 03:13:00,
2013-08-03 23:19:00,63.4,59.8,29.82,NNW,340,1.0,2.0,88,0.00,,,0.01,Wunderground v.1.15,2013-08-04 03:19:00,
2013-08-03 23:26:00,63.2,59.6,29.83,NW,317,1.0,1.0,88,0.00,,,0.01,Wunderground v.1.15,2013-08-04 03:26:00,
2013-08-03 23:32:00,62.9,59.3,29.82,WNW,301,1.0,1.0,88,0.00,,,0.01,Wunderground v.1.15,2013-08-04 03:32:00,
2013-08-03 23:38:00,62.5,59.2,29.82,North,355,1.0,2.0,89,0.00,,,0.01,Wunderground v.1.15,2013-08-04 03:38:00,
2013-08-03 23:43:00,62.3,59.0,29.83,NNW,345,1.0,2.0,89,0.00,,,0.01,Wunderground v.1.15,2013-08-04 03:43:00,
2013-08-03 23:49:00,62.1,58.5,29.82,NW,313,1.0,2.0,88,0.00,,,0.01,Wunderground v.1.15,2013-08-04 03:49:00,
2013-08-03 23:56:00,62.0,58.4,29.82,NNW,330,1.0,2.0,88,0.00,,,0.01,Wunderground v.1.15,2013-08-04 03:56:00,